createdAt,value
2022-08-11T00:01:14.998Z,100792.69
2022-08-11T00:03:51.380Z,100795.69
2022-08-11T00:06:27.091Z,100798.44
2022-08-11T00:08:56.888Z,100793.16
2022-08-11T00:11:35.339Z,100795.34
2022-08-11T00:14:05.226Z,100799.13
2022-08-11T00:16:34.925Z,100794.13
2022-08-11T00:19:05.423Z,100787.22
2022-08-11T00:22:04.191Z,100796.75
2022-08-11T00:24:34.981Z,100797.47
2022-08-11T00:27:33.662Z,100793.53
2022-08-11T00:30:02.422Z,100804.97
2022-08-11T00:32:32.758Z,100802.44
2022-08-11T00:35:55.338Z,100803.53
2022-08-11T00:37:55.509Z,100794.69
2022-08-11T00:40:29.534Z,100793.28
2022-08-11T00:43:10.572Z,100803.88
2022-08-11T00:45:44.064Z,100805.19
2022-08-11T00:48:27.945Z,100802.09
2022-08-11T00:51:11.215Z,100808.84
2022-08-11T00:53:48.133Z,100808.28
2022-08-11T00:56:34.200Z,100809.56
2022-08-11T00:59:59.122Z,100808.38
2022-08-11T01:03:05.012Z,100806.09
2022-08-11T01:06:09.379Z,100816.44
2022-08-11T01:08:59.727Z,100824.06
2022-08-11T01:11:56.435Z,100827.00
2022-08-11T01:15:14.165Z,100822.00
2022-08-11T01:18:15.867Z,100824.16
2022-08-11T01:21:15.935Z,100821.59
2022-08-11T01:24:32.664Z,100822.09
2022-08-11T01:27:27.871Z,100825.50
2022-08-11T01:30:42.741Z,100830.41
2022-08-11T01:33:44.382Z,100837.41
2022-08-11T01:36:56.986Z,100836.78
2022-08-11T01:40:02.942Z,100834.53
2022-08-11T01:43:33.715Z,100835.81
2022-08-11T01:46:08.961Z,100830.22
2022-08-11T01:48:43.716Z,100826.66
2022-08-11T01:51:47.342Z,100833.41
2022-08-11T01:54:25.985Z,100838.50
2022-08-11T01:57:14.116Z,100838.97
2022-08-11T01:59:49.496Z,100847.41
2022-08-11T02:02:50.230Z,100853.94
2022-08-11T02:05:56.459Z,100844.06
2022-08-11T02:08:44.248Z,100848.94
2022-08-11T02:11:35.845Z,100851.69
2022-08-11T02:14:29.371Z,100851.69
2022-08-11T02:17:10.725Z,100856.06
2022-08-11T02:20:07.619Z,100856.91
2022-08-11T02:23:01.477Z,100851.44
2022-08-11T02:25:35.933Z,100861.28
2022-08-11T02:28:11.957Z,100855.00
2022-08-11T02:31:14.646Z,100863.19
2022-08-11T02:34:06.387Z,100871.03
2022-08-11T02:36:44.322Z,100870.19
2022-08-11T02:39:16.382Z,100870.19
2022-08-11T02:42:32.695Z,100872.34
2022-08-11T02:45:17.739Z,100868.53
2022-08-11T02:48:09.434Z,100863.06
2022-08-11T02:50:44.084Z,100866.38
2022-08-11T02:53:21.692Z,100872.47
2022-08-11T02:56:03.150Z,100868.66
2022-08-11T02:58:41.878Z,100872.63
2022-08-11T03:01:21.314Z,100875.13
2022-08-11T03:03:56.592Z,100879.31
2022-08-11T03:06:37.700Z,100888.94
2022-08-11T03:09:11.380Z,100886.81
2022-08-11T03:12:08.036Z,100896.47
2022-08-11T03:15:05.747Z,100897.06
2022-08-11T03:17:42.689Z,100895.78
2022-08-11T03:20:23.638Z,100892.59
2022-08-11T03:23:03.071Z,100894.00
2022-08-11T03:25:35.782Z,100902.59
2022-08-11T03:28:16.496Z,100900.22
2022-08-11T03:30:54.000Z,100898.09
2022-08-11T03:33:46.219Z,100903.34
2022-08-11T03:36:24.304Z,100894.91
2022-08-11T03:39:07.642Z,100889.38
2022-08-11T03:42:02.490Z,100892.13
2022-08-11T03:44:57.724Z,100897.72
2022-08-11T03:47:52.658Z,100895.44
2022-08-11T03:50:37.667Z,100893.91
2022-08-11T03:53:17.574Z,100897.88
2022-08-11T03:56:24.348Z,100891.06
2022-08-11T03:59:25.252Z,100886.44
2022-08-11T04:02:11.052Z,100892.16
2022-08-11T04:05:28.372Z,100893.81
2022-08-11T04:08:37.646Z,100896.19
2022-08-11T04:12:02.889Z,100896.44
2022-08-11T04:15:05.321Z,100896.88
2022-08-11T04:17:59.766Z,100901.75
2022-08-11T04:20:45.627Z,100896.50
2022-08-11T04:24:34.525Z,100898.63
2022-08-11T04:26:39.044Z,100896.34
2022-08-11T04:29:36.023Z,100894.66
2022-08-11T04:32:32.921Z,100896.81
2022-08-11T04:35:18.972Z,100888.25
2022-08-11T04:38:21.149Z,100907.41
2022-08-11T04:41:32.191Z,100899.41
2022-08-11T04:44:57.668Z,100897.97
2022-08-11T04:48:06.268Z,100908.06
2022-08-11T04:51:16.001Z,100903.91
2022-08-11T04:54:16.054Z,100904.13
2022-08-11T04:57:07.081Z,100906.41
2022-08-11T05:00:24.055Z,100909.50
2022-08-11T05:03:25.173Z,100905.50
2022-08-11T05:06:37.333Z,100913.81
2022-08-11T05:09:30.182Z,100902.81
2022-08-11T05:12:24.881Z,100896.44
2022-08-11T05:15:12.385Z,100901.19
2022-08-11T05:17:59.446Z,100913.13
2022-08-11T05:20:46.590Z,100907.56
2022-08-11T05:23:34.541Z,100905.06
2022-08-11T05:26:47.541Z,100906.66
2022-08-11T07:26:28.687Z,100902.41
2022-08-11T07:28:59.105Z,100894.47
2022-08-11T07:31:37.213Z,100902.56
2022-08-11T07:34:18.637Z,100896.88
2022-08-11T07:36:52.566Z,100901.03
2022-08-11T07:39:24.274Z,100895.84
2022-08-11T07:41:57.290Z,100892.03
2022-08-11T07:44:34.331Z,100895.44
2022-08-11T07:47:21.997Z,100888.06
2022-08-11T07:50:12.251Z,100895.91
2022-08-11T07:52:41.723Z,100902.31
2022-08-11T07:55:15.619Z,100898.25
2022-08-11T07:58:16.576Z,100903.56
2022-08-11T08:01:21.868Z,100901.97
2022-08-11T08:04:09.231Z,100899.50
2022-08-11T08:06:56.562Z,100898.22
2022-08-11T08:09:43.670Z,100903.50
2022-08-11T08:12:30.389Z,100894.72
2022-08-11T08:15:19.896Z,100891.19
2022-08-11T08:18:10.028Z,100892.31
2022-08-11T08:20:47.217Z,100897.88
2022-08-11T08:23:17.535Z,100896.31
2022-08-11T08:25:47.658Z,100891.41
2022-08-11T08:28:18.891Z,100887.63
2022-08-11T08:30:51.804Z,100884.88
2022-08-11T08:33:25.909Z,100883.00
2022-08-11T08:36:11.919Z,100894.63
2022-08-11T08:38:42.675Z,100886.44
2022-08-11T08:41:13.219Z,100885.38
2022-08-11T08:43:49.616Z,100887.34
2022-08-11T08:46:23.591Z,100886.88
2022-08-11T08:48:53.587Z,100889.16
2022-08-11T08:52:02.576Z,100878.97
2022-08-11T08:54:35.645Z,100885.38
2022-08-11T08:57:06.465Z,100885.47
2022-08-11T08:59:48.627Z,100880.25
2022-08-11T09:02:34.122Z,100884.19
2022-08-11T09:05:05.820Z,100875.41
2022-08-11T09:07:38.602Z,100879.81
2022-08-11T09:10:11.346Z,100879.56
2022-08-11T09:12:43.585Z,100872.84
2022-08-11T09:15:15.060Z,100864.72
2022-08-11T09:17:47.893Z,100866.28
2022-08-11T09:20:20.881Z,100858.03
2022-08-11T09:26:17.027Z,100861.31
2022-08-11T09:28:46.514Z,100865.16
2022-08-11T09:31:16.229Z,100866.22
2022-08-11T09:33:47.137Z,100848.59
2022-08-11T09:36:33.138Z,100844.88
2022-08-11T09:39:19.742Z,100858.81
2022-08-11T09:42:00.969Z,100845.22
2022-08-11T09:44:50.674Z,100850.69
2022-08-11T09:47:24.623Z,100854.16
2022-08-11T09:50:00.593Z,100840.88
2022-08-11T09:52:32.743Z,100841.38
2022-08-11T09:55:02.574Z,100832.50
2022-08-11T09:57:48.613Z,100836.69
2022-08-11T10:00:18.249Z,100842.59
2022-08-11T10:02:50.021Z,100841.88
2022-08-11T10:05:39.253Z,100837.84
2022-08-11T10:08:10.657Z,100841.06
2022-08-11T10:10:40.772Z,100839.63
2022-08-11T10:14:30.572Z,100839.19
2022-08-11T10:16:15.363Z,100834.22
2022-08-11T10:18:52.993Z,100830.78
2022-08-11T10:21:31.650Z,100832.41
2022-08-11T10:24:19.518Z,100836.22
2022-08-11T10:26:58.915Z,100842.53
2022-08-11T10:29:51.205Z,100835.28
2022-08-11T10:32:52.790Z,100838.03
2022-08-11T10:35:29.519Z,100834.94
2022-08-11T10:38:08.431Z,100834.97
2022-08-11T10:40:41.042Z,100839.81
2022-08-11T10:43:14.326Z,100838.53
2022-08-11T10:46:25.737Z,100836.06
2022-08-11T10:48:59.627Z,100826.03
2022-08-11T10:51:50.641Z,100832.16
2022-08-11T10:54:41.709Z,100830.66
2022-08-11T10:57:29.320Z,100821.91
2022-08-11T10:59:58.779Z,100821.06
2022-08-11T11:02:28.484Z,100814.13
2022-08-11T11:05:04.292Z,100814.25
2022-08-11T11:07:41.514Z,100814.84
2022-08-11T11:10:14.230Z,100819.41
2022-08-11T11:13:04.295Z,100819.44
2022-08-11T11:15:53.623Z,100801.00
2022-08-11T11:18:25.234Z,100809.63
2022-08-11T11:20:58.660Z,100810.34
2022-08-11T11:23:34.953Z,100804.16
2022-08-11T11:26:27.189Z,100799.31
2022-08-11T11:29:41.908Z,100794.00
2022-08-11T11:32:22.561Z,100793.75
2022-08-11T11:35:12.550Z,100797.72
2022-08-11T11:37:56.200Z,100804.91
2022-08-11T11:40:32.356Z,100796.84
2022-08-11T11:43:02.989Z,100802.72
2022-08-11T11:45:32.041Z,100794.66
2022-08-11T11:48:02.275Z,100798.31
2022-08-11T11:50:34.607Z,100791.44
2022-08-11T11:53:06.098Z,100788.31
2022-08-11T11:55:35.300Z,100789.00
2022-08-11T11:58:23.805Z,100788.78
2022-08-11T12:01:12.107Z,100784.44
2022-08-11T12:03:41.909Z,100789.47
2022-08-11T12:06:14.503Z,100786.84
2022-08-11T12:08:44.424Z,100787.19
2022-08-11T12:11:31.891Z,100781.03
2022-08-11T12:14:10.211Z,100782.03
2022-08-11T12:16:41.448Z,100783.19
2022-08-11T12:19:14.206Z,100780.84
2022-08-11T12:22:05.251Z,100776.16
2022-08-11T12:24:53.570Z,100783.19
2022-08-11T12:27:25.306Z,100787.09
2022-08-11T12:30:00.751Z,100773.50
2022-08-11T12:32:33.943Z,100777.81
2022-08-11T12:35:03.335Z,100784.13
2022-08-11T12:37:35.160Z,100773.50
2022-08-11T12:40:43.711Z,100780.97
2022-08-11T12:43:37.918Z,100774.81
2022-08-11T12:46:11.855Z,100775.88
2022-08-11T12:49:04.233Z,100771.97
2022-08-11T12:52:13.649Z,100764.91
2022-08-11T12:55:00.620Z,100771.25
2022-08-11T12:57:52.170Z,100767.59
2022-08-11T13:00:39.441Z,100771.75
2022-08-11T13:03:29.260Z,100776.41
2022-08-11T13:05:59.823Z,100768.84
2022-08-11T13:08:30.781Z,100771.31
2022-08-11T13:11:19.017Z,100759.34
2022-08-11T13:13:55.553Z,100761.81
2022-08-11T13:16:30.545Z,100761.22
2022-08-11T13:19:01.924Z,100758.16
2022-08-11T13:21:31.390Z,100764.50
2022-08-11T13:24:03.159Z,100755.09
2022-08-11T13:26:48.762Z,100758.44
2022-08-11T13:29:23.788Z,100751.03
2022-08-11T13:31:54.641Z,100759.94
2022-08-11T13:34:27.508Z,100751.66
2022-08-11T13:36:58.365Z,100750.09
2022-08-11T13:39:28.714Z,100746.53
2022-08-11T13:41:59.547Z,100755.56
2022-08-11T13:44:31.230Z,100746.94
2022-08-11T13:47:02.627Z,100745.84
2022-08-11T13:49:33.917Z,100746.16
2022-08-11T13:52:03.589Z,100735.41
2022-08-11T13:54:36.357Z,100746.84
2022-08-11T13:57:13.558Z,100740.50
2022-08-11T14:00:13.188Z,100745.50
2022-08-11T14:02:57.238Z,100741.38
2022-08-11T14:05:30.635Z,100739.72
2022-08-11T14:08:03.310Z,100736.44
2022-08-11T14:10:34.307Z,100734.00
2022-08-11T14:13:25.739Z,100735.94
2022-08-11T14:15:55.194Z,100734.59
2022-08-11T14:18:27.292Z,100729.06
2022-08-11T14:21:17.570Z,100734.09
2022-08-11T14:23:49.491Z,100724.97
2022-08-11T14:26:27.890Z,100719.41
2022-08-11T14:28:59.277Z,100717.22
2022-08-11T14:31:30.451Z,100719.44
2022-08-11T14:34:03.624Z,100714.22
2022-08-11T14:36:37.216Z,100710.72
2022-08-11T14:39:13.056Z,100719.13
2022-08-11T14:42:11.672Z,100718.00
2022-08-11T14:45:16.706Z,100704.47
2022-08-11T14:47:48.902Z,100709.19
2022-08-11T14:50:23.274Z,100713.91
2022-08-11T14:52:56.737Z,100712.53
2022-08-11T14:55:44.515Z,100700.63
2022-08-11T14:58:16.457Z,100699.25
2022-08-11T15:00:45.659Z,100705.09
2022-08-11T15:03:14.715Z,100699.88
2022-08-11T15:05:57.262Z,100699.03
2022-08-11T15:08:48.595Z,100696.31
2022-08-11T15:11:36.818Z,100703.28
2022-08-11T15:14:07.972Z,100703.34
2022-08-11T15:16:56.154Z,100695.34
2022-08-11T15:19:40.569Z,100698.94
2022-08-11T15:22:28.941Z,100696.97
2022-08-11T15:25:00.772Z,100710.00
2022-08-11T15:27:49.457Z,100699.50
2022-08-11T15:30:36.138Z,100709.50
2022-08-11T15:33:25.847Z,100703.97
2022-08-11T15:36:27.911Z,100700.13
2022-08-11T15:39:05.212Z,100691.03
2022-08-11T15:41:58.902Z,100697.38
2022-08-11T15:45:02.070Z,100699.88
2022-08-11T15:47:41.479Z,100700.47
2022-08-11T15:50:15.460Z,100696.03
2022-08-11T15:52:49.638Z,100699.09
2022-08-11T15:55:18.745Z,100700.50
2022-08-11T15:58:08.724Z,100697.19
2022-08-11T16:00:56.894Z,100701.63
2022-08-11T16:04:07.965Z,100691.97
2022-08-11T16:06:42.800Z,100698.06
2022-08-11T16:09:19.172Z,100699.19
2022-08-11T16:11:49.690Z,100694.22
2022-08-11T16:14:38.319Z,100689.78
2022-08-11T16:17:09.367Z,100693.13
2022-08-11T16:19:39.833Z,100688.16
2022-08-11T16:22:13.524Z,100684.00
2022-08-11T16:27:03.732Z,100693.69
2022-08-11T16:27:38.607Z,100689.28
2022-08-11T16:30:10.444Z,100689.31
2022-08-11T16:32:43.178Z,100694.84
2022-08-11T16:35:32.217Z,100686.28
2022-08-11T16:38:18.928Z,100688.47
2022-08-11T16:40:49.108Z,100690.97
2022-08-11T16:43:37.622Z,100693.19
2022-08-11T16:46:26.635Z,100689.31
2022-08-11T16:48:56.763Z,100694.31
2022-08-11T16:51:25.391Z,100692.94
2022-08-11T16:54:05.305Z,100699.28
2022-08-11T16:56:38.801Z,100691.56
2022-08-11T16:59:17.353Z,100702.91
2022-08-11T17:02:00.623Z,100692.97
2022-08-11T17:04:53.616Z,100702.06
2022-08-11T17:07:43.246Z,100703.75
2022-08-11T17:10:53.502Z,100706.25
2022-08-11T17:13:30.443Z,100703.47
2022-08-11T17:16:12.084Z,100707.34
2022-08-11T17:18:58.502Z,100710.13
2022-08-11T17:21:29.983Z,100702.38
2022-08-11T17:24:06.420Z,100713.97
2022-08-11T17:26:57.141Z,100714.28
2022-08-11T17:29:30.017Z,100714.00
2022-08-11T17:32:18.181Z,100711.78
2022-08-11T17:35:07.330Z,100711.50
2022-08-11T17:37:37.889Z,100715.94
2022-08-11T17:40:12.448Z,100712.03
2022-08-11T17:43:11.965Z,100718.38
2022-08-11T17:45:56.639Z,100717.81
2022-08-11T17:48:27.925Z,100713.94
2022-08-11T17:51:00.537Z,100726.66
2022-08-11T17:54:02.247Z,100725.56
2022-08-11T17:57:08.237Z,100724.44
2022-08-11T17:59:53.529Z,100727.47
2022-08-11T18:02:43.983Z,100727.19
2022-08-11T18:05:14.115Z,100727.72
2022-08-11T18:08:03.895Z,100736.84
2022-08-11T18:10:52.229Z,100736.81
2022-08-11T18:13:41.861Z,100735.69
2022-08-11T18:16:28.416Z,100733.75
2022-08-11T18:19:14.477Z,100743.09
2022-08-11T18:22:14.812Z,100752.19
2022-08-11T18:25:07.574Z,100744.97
2022-08-11T18:27:54.752Z,100746.63
2022-08-11T18:30:42.915Z,100748.28
2022-08-11T18:36:41.399Z,100756.22
2022-08-11T18:39:31.046Z,100755.94
2022-08-11T18:42:29.085Z,100763.91
2022-08-11T18:45:19.203Z,100756.97
2022-08-11T18:48:11.332Z,100758.63
2022-08-11T18:51:29.845Z,100757.75
2022-08-11T18:54:09.528Z,100761.31
2022-08-11T18:56:55.513Z,100764.59
2022-08-11T18:59:45.988Z,100762.66
2022-08-11T19:02:48.269Z,100760.66
2022-08-11T19:06:32.174Z,100770.28
2022-08-11T19:08:53.669Z,100764.72
2022-08-11T19:11:42.692Z,100760.84
2022-08-11T19:14:31.558Z,100771.31
2022-08-11T19:17:44.398Z,100772.66
2022-08-11T19:20:30.305Z,100768.78
2022-08-11T19:23:16.887Z,100769.31
2022-08-11T19:26:03.963Z,100783.63
2022-08-11T19:28:52.586Z,100777.28
2022-08-11T19:31:44.025Z,100785.25
2022-08-11T19:34:33.588Z,100783.00
2022-08-11T19:37:24.043Z,100786.28
2022-08-11T19:40:11.763Z,100782.41
2022-08-11T19:42:57.720Z,100781.28
2022-08-11T19:45:44.836Z,100793.91
2022-08-11T19:48:40.110Z,100788.63
2022-08-11T19:51:28.747Z,100789.50
2022-08-11T19:54:16.270Z,100783.41
2022-08-11T19:57:03.951Z,100788.34
2022-08-11T19:59:51.208Z,100792.19
2022-08-11T20:02:36.820Z,100791.06
2022-08-11T20:05:23.419Z,100793.22
2022-08-11T20:08:12.582Z,100795.44
2022-08-11T20:10:59.796Z,100800.34
2022-08-11T20:13:45.898Z,100798.34
2022-08-11T20:16:37.131Z,100799.97
2022-08-11T20:19:26.177Z,100796.91
2022-08-11T20:22:31.088Z,100797.41
2022-08-11T20:25:18.871Z,100801.19
2022-08-11T20:28:07.003Z,100797.91
2022-08-11T20:30:54.256Z,100802.81
2022-08-11T20:33:41.580Z,100801.69
2022-08-11T20:36:29.260Z,100800.25
2022-08-11T20:39:17.241Z,100800.78
2022-08-11T20:42:06.402Z,100800.22
2022-08-11T20:44:55.952Z,100797.16
2022-08-11T20:47:58.985Z,100797.66
2022-08-11T20:50:46.487Z,100796.53
2022-08-11T20:53:36.014Z,100803.09
2022-08-11T20:56:28.771Z,100807.44
2022-08-11T20:59:21.617Z,100797.81
2022-08-11T21:02:10.542Z,100796.63
2022-08-11T21:05:00.028Z,100804.56
2022-08-11T21:07:57.080Z,100811.69
2022-08-11T21:10:50.543Z,100814.94
2022-08-11T21:13:42.091Z,100810.22
2022-08-11T21:16:33.917Z,100815.34
2022-08-11T21:20:01.417Z,100821.13
2022-08-11T21:22:37.428Z,100817.22
2022-08-11T21:25:26.126Z,100822.13
2022-08-11T21:28:15.621Z,100819.66
2022-08-11T21:31:02.114Z,100814.06
2022-08-11T21:33:50.524Z,100821.97
2022-08-11T21:36:38.687Z,100818.91
2022-08-11T21:39:26.544Z,100824.91
2022-08-11T21:42:13.719Z,100832.84
2022-08-11T21:45:01.412Z,100831.69
2022-08-11T21:48:00.790Z,100836.84
2022-08-11T21:50:48.967Z,100839.53
2022-08-11T21:53:34.538Z,100841.13
2022-08-11T21:56:22.058Z,100839.38
2022-08-11T21:59:13.220Z,100840.13
2022-08-11T22:01:59.496Z,100845.28
2022-08-11T22:04:46.107Z,100840.88
2022-08-11T22:07:40.896Z,100844.69
2022-08-11T22:10:42.238Z,100843.53
2022-08-11T22:13:30.322Z,100844.03
2022-08-11T22:16:16.455Z,100848.09
2022-08-11T22:19:03.044Z,100846.91
2022-08-11T22:22:01.486Z,100849.91
2022-08-11T22:24:52.929Z,100843.00
2022-08-11T22:27:39.509Z,100842.66
2022-08-11T22:30:26.947Z,100845.91
2022-08-11T22:33:15.162Z,100848.91
2022-08-11T22:36:03.227Z,100842.50
2022-08-11T22:38:51.207Z,100846.81
2022-08-11T22:41:39.552Z,100845.66
2022-08-11T22:44:26.145Z,100850.53
2022-08-11T22:47:15.493Z,100849.38
2022-08-11T22:50:11.731Z,100850.94
2022-08-11T22:52:59.921Z,100842.59
2022-08-11T22:55:46.428Z,100851.59
2022-08-11T22:58:34.746Z,100855.66
2022-08-11T23:01:21.449Z,100859.97
2022-08-11T23:04:08.045Z,100861.53
2022-08-11T23:06:54.168Z,100860.97
2022-08-11T23:09:42.793Z,100853.78
2022-08-11T23:12:29.009Z,100859.53
2022-08-11T23:15:16.888Z,100860.84
2022-08-11T23:18:03.644Z,100859.69
2022-08-11T23:20:50.313Z,100865.91
2022-08-11T23:23:38.505Z,100860.88
2022-08-11T23:26:24.684Z,100870.41
2022-08-11T23:29:12.869Z,100874.47
2022-08-11T23:32:01.119Z,100871.38
2022-08-11T23:35:36.964Z,100876.28
2022-08-11T23:38:00.037Z,100881.44
2022-08-11T23:40:45.930Z,100882.72
2022-08-11T23:43:39.030Z,100890.13
2022-08-11T23:46:25.415Z,100887.88
2022-08-11T23:49:16.139Z,100885.59
2022-08-11T23:52:04.012Z,100881.44
2022-08-11T23:54:52.112Z,100885.25
2022-08-11T23:57:38.690Z,100887.41
